sensor_id;sensor_type;location;lat;lon;timestamp;pressure;altitude;pressure_sealevel;temperature;humidity
62705;BME280;48767;50.754;8.772;2022-07-22T00:01:23;99695.13;;;18.78;nan
62705;BME280;48767;50.754;8.772;2022-07-22T00:03:49;99688.38;;;18.74;nan
62705;BME280;48767;50.754;8.772;2022-07-22T00:06:16;99685.88;;;18.73;nan
62705;BME280;48767;50.754;8.772;2022-07-22T00:08:42;99693.22;;;18.72;nan
62705;BME280;48767;50.754;8.772;2022-07-22T00:11:09;99695.94;;;18.72;nan
62705;BME280;48767;50.754;8.772;2022-07-22T00:13:35;99697.88;;;18.78;nan
62705;BME280;48767;50.754;8.772;2022-07-22T00:16:02;99695.34;;;18.77;nan
62705;BME280;48767;50.754;8.772;2022-07-22T00:18:30;99690.09;;;18.75;nan
62705;BME280;48767;50.754;8.772;2022-07-22T00:20:57;99693.22;;;18.72;nan
62705;BME280;48767;50.754;8.772;2022-07-22T00:23:23;99682.31;;;18.72;nan
62705;BME280;48767;50.754;8.772;2022-07-22T00:25:50;99686.31;;;18.76;nan
62705;BME280;48767;50.754;8.772;2022-07-22T00:28:18;99691.97;;;18.75;nan
62705;BME280;48767;50.754;8.772;2022-07-22T00:30:45;99687.56;;;18.74;nan
62705;BME280;48767;50.754;8.772;2022-07-22T00:33:11;99691.97;;;18.75;nan
62705;BME280;48767;50.754;8.772;2022-07-22T00:35:39;99691.78;;;18.76;nan
62705;BME280;48767;50.754;8.772;2022-07-22T00:38:06;99684.16;;;18.72;nan
62705;BME280;48767;50.754;8.772;2022-07-22T00:40:32;99691.94;;;18.68;nan
62705;BME280;48767;50.754;8.772;2022-07-22T00:42:59;99688.56;;;18.66;nan
62705;BME280;48767;50.754;8.772;2022-07-22T00:45:26;99690.66;;;18.64;nan
62705;BME280;48767;50.754;8.772;2022-07-22T00:47:53;99689.38;;;18.60;nan
62705;BME280;48767;50.754;8.772;2022-07-22T00:50:19;99690.16;;;18.54;nan
62705;BME280;48767;50.754;8.772;2022-07-22T00:52:47;99695.56;;;18.48;nan
62705;BME280;48767;50.754;8.772;2022-07-22T00:55:14;99682.97;;;18.47;nan
62705;BME280;48767;50.754;8.772;2022-07-22T00:57:40;99688.38;;;18.40;nan
62705;BME280;48767;50.754;8.772;2022-07-22T01:00:09;99697.38;;;18.41;nan
62705;BME280;48767;50.754;8.772;2022-07-22T01:02:36;99692.16;;;18.39;nan
62705;BME280;48767;50.754;8.772;2022-07-22T01:05:05;99694.63;;;18.34;nan
62705;BME280;48767;50.754;8.772;2022-07-22T01:07:31;99687.84;;;18.30;nan
62705;BME280;48767;50.754;8.772;2022-07-22T01:09:59;99685.97;;;18.31;nan
62705;BME280;48767;50.754;8.772;2022-07-22T01:12:26;99692.25;;;18.31;nan
62705;BME280;48767;50.754;8.772;2022-07-22T01:14:52;99694.97;;;18.31;nan
62705;BME280;48767;50.754;8.772;2022-07-22T01:17:19;99688.22;;;18.27;nan
62705;BME280;48767;50.754;8.772;2022-07-22T01:19:46;99690.31;;;18.25;nan
62705;BME280;48767;50.754;8.772;2022-07-22T01:22:14;99680.03;;;18.21;nan
62705;BME280;48767;50.754;8.772;2022-07-22T01:24:40;99692.81;;;18.20;nan
62705;BME280;48767;50.754;8.772;2022-07-22T01:27:06;99688.13;;;18.14;nan
62705;BME280;48767;50.754;8.772;2022-07-22T01:29:33;99687.28;;;18.14;nan
62705;BME280;48767;50.754;8.772;2022-07-22T01:32:00;99686.47;;;18.13;nan
62705;BME280;48767;50.754;8.772;2022-07-22T01:34:26;99686.84;;;18.10;nan
62705;BME280;48767;50.754;8.772;2022-07-22T01:36:53;99685.59;;;18.13;nan
62705;BME280;48767;50.754;8.772;2022-07-22T01:39:21;99684.75;;;18.12;nan
62705;BME280;48767;50.754;8.772;2022-07-22T01:41:47;99674.88;;;18.11;nan
62705;BME280;48767;50.754;8.772;2022-07-22T01:44:15;99673.59;;;18.07;nan
62705;BME280;48767;50.754;8.772;2022-07-22T01:46:41;99681.13;;;18.05;nan
62705;BME280;48767;50.754;8.772;2022-07-22T01:49:07;99677.09;;;18.01;nan
62705;BME280;48767;50.754;8.772;2022-07-22T01:51:34;99672.88;;;17.99;nan
62705;BME280;48767;50.754;8.772;2022-07-22T01:54:01;99663.69;;;18.00;nan
62705;BME280;48767;50.754;8.772;2022-07-22T01:56:29;99670.13;;;17.92;nan
62705;BME280;48767;50.754;8.772;2022-07-22T01:58:55;99684.59;;;17.72;nan
62705;BME280;48767;50.754;8.772;2022-07-22T02:01:21;99679.56;;;17.54;nan
62705;BME280;48767;50.754;8.772;2022-07-22T02:03:49;99686.63;;;17.34;nan
62705;BME280;48767;50.754;8.772;2022-07-22T02:06:16;99682.16;;;17.27;nan
62705;BME280;48767;50.754;8.772;2022-07-22T02:08:42;99682.53;;;17.24;nan
62705;BME280;48767;50.754;8.772;2022-07-22T02:11:09;99680.66;;;17.24;nan
62705;BME280;48767;50.754;8.772;2022-07-22T02:13:37;99684.50;;;17.30;nan
62705;BME280;48767;50.754;8.772;2022-07-22T02:16:03;99685.53;;;17.29;nan
62705;BME280;48767;50.754;8.772;2022-07-22T02:18:30;99689.75;;;17.31;nan
62705;BME280;48767;50.754;8.772;2022-07-22T02:20:56;99680.56;;;17.32;nan
62705;BME280;48767;50.754;8.772;2022-07-22T02:23:23;99682.53;;;17.24;nan
62705;BME280;48767;50.754;8.772;2022-07-22T02:25:49;99682.53;;;17.24;nan
62705;BME280;48767;50.754;8.772;2022-07-22T02:28:16;99681.50;;;17.25;nan
62705;BME280;48767;50.754;8.772;2022-07-22T02:30:43;99674.38;;;17.38;nan
62705;BME280;48767;50.754;8.772;2022-07-22T02:33:10;99677.34;;;17.43;nan
62705;BME280;48767;50.754;8.772;2022-07-22T02:35:37;99685.09;;;17.25;nan
62705;BME280;48767;50.754;8.772;2022-07-22T02:38:03;99681.16;;;17.13;nan
62705;BME280;48767;50.754;8.772;2022-07-22T02:40:30;99686.81;;;16.97;nan
62705;BME280;48767;50.754;8.772;2022-07-22T02:42:56;99683.44;;;16.95;nan
62705;BME280;48767;50.754;8.772;2022-07-22T02:45:23;99680.03;;;16.93;nan
62705;BME280;48767;50.754;8.772;2022-07-22T02:47:52;99682.97;;;16.92;nan
62705;BME280;48767;50.754;8.772;2022-07-22T02:50:20;99685.88;;;16.90;nan
62705;BME280;48767;50.754;8.772;2022-07-22T02:52:47;99691.88;;;17.00;nan
62705;BME280;48767;50.754;8.772;2022-07-22T02:55:13;99691.31;;;16.90;nan
62705;BME280;48767;50.754;8.772;2022-07-22T02:57:40;99682.97;;;16.92;nan
62705;BME280;48767;50.754;8.772;2022-07-22T03:00:08;99687.09;;;16.88;nan
62705;BME280;48767;50.754;8.772;2022-07-22T03:02:36;99677.44;;;16.85;nan
62705;BME280;48767;50.754;8.772;2022-07-22T03:05:04;99678.75;;;16.89;nan
62705;BME280;48767;50.754;8.772;2022-07-22T03:07:31;99685.75;;;16.98;nan
62705;BME280;48767;50.754;8.772;2022-07-22T03:09:58;99671.44;;;17.04;nan
62705;BME280;48767;50.754;8.772;2022-07-22T03:12:24;99674.41;;;17.09;nan
62705;BME280;48767;50.754;8.772;2022-07-22T03:14:51;99680.59;;;17.03;nan
62705;BME280;48767;50.754;8.772;2022-07-22T03:17:17;99681.63;;;17.02;nan
62705;BME280;48767;50.754;8.772;2022-07-22T03:19:44;99680.22;;;17.06;nan
62705;BME280;48767;50.754;8.772;2022-07-22T03:22:12;99677.19;;;17.16;nan
62705;BME280;48767;50.754;8.772;2022-07-22T03:24:38;99671.25;;;17.27;nan
62705;BME280;48767;50.754;8.772;2022-07-22T03:27:05;99677.75;;;17.40;nan
62705;BME280;48767;50.754;8.772;2022-07-22T03:29:31;99680.66;;;17.24;nan
62705;BME280;48767;50.754;8.772;2022-07-22T03:31:58;99679.75;;;17.17;nan
62705;BME280;48767;50.754;8.772;2022-07-22T03:34:24;99692.03;;;17.13;nan
62705;BME280;48767;50.754;8.772;2022-07-22T03:36:50;99697.47;;;17.13;nan
62705;BME280;48767;50.754;8.772;2022-07-22T03:39:18;99690.53;;;17.25;nan
62705;BME280;48767;50.754;8.772;2022-07-22T03:41:45;99686.78;;;17.26;nan
62705;BME280;48767;50.754;8.772;2022-07-22T03:44:11;99685.13;;;17.32;nan
62705;BME280;48767;50.754;8.772;2022-07-22T03:46:37;99686.09;;;17.24;nan
62705;BME280;48767;50.754;8.772;2022-07-22T03:49:04;99693.31;;;17.32;nan
62705;BME280;48767;50.754;8.772;2022-07-22T03:51:30;99704.00;;;17.33;nan
62705;BME280;48767;50.754;8.772;2022-07-22T03:53:57;99692.00;;;17.42;nan
62705;BME280;48767;50.754;8.772;2022-07-22T03:56:25;99697.84;;;17.39;nan
62705;BME280;48767;50.754;8.772;2022-07-22T03:58:51;99699.81;;;17.45;nan
62705;BME280;48767;50.754;8.772;2022-07-22T04:01:18;99699.81;;;17.45;nan
62705;BME280;48767;50.754;8.772;2022-07-22T04:03:44;99704.13;;;17.40;nan
62705;BME280;48767;50.754;8.772;2022-07-22T04:06:11;99695.78;;;17.41;nan
62705;BME280;48767;50.754;8.772;2022-07-22T04:08:37;99696.06;;;17.46;nan
62705;BME280;48767;50.754;8.772;2022-07-22T04:11:04;99701.34;;;17.54;nan
62705;BME280;48767;50.754;8.772;2022-07-22T04:13:32;99695.47;;;17.36;nan
62705;BME280;48767;50.754;8.772;2022-07-22T04:15:58;99691.66;;;17.45;nan
62705;BME280;48767;50.754;8.772;2022-07-22T04:18:24;99689.31;;;17.63;nan
62705;BME280;48767;50.754;8.772;2022-07-22T04:20:51;99688.78;;;17.53;nan
62705;BME280;48767;50.754;8.772;2022-07-22T04:23:17;99699.41;;;17.48;nan
62705;BME280;48767;50.754;8.772;2022-07-22T04:25:44;99697.69;;;17.62;nan
62705;BME280;48767;50.754;8.772;2022-07-22T04:28:11;99696.06;;;17.67;nan
62705;BME280;48767;50.754;8.772;2022-07-22T04:30:39;99692.22;;;17.83;nan
62705;BME280;48767;50.754;8.772;2022-07-22T04:33:05;99701.06;;;17.85;nan
62705;BME280;48767;50.754;8.772;2022-07-22T04:35:32;99685.69;;;17.98;nan
62705;BME280;48767;50.754;8.772;2022-07-22T04:37:58;99685.88;;;17.97;nan
62705;BME280;48767;50.754;8.772;2022-07-22T04:40:25;99699.69;;;17.95;nan
62705;BME280;48767;50.754;8.772;2022-07-22T04:42:52;99694.91;;;17.97;nan
62705;BME280;48767;50.754;8.772;2022-07-22T04:45:18;99692.22;;;18.04;nan
62705;BME280;48767;50.754;8.772;2022-07-22T04:47:46;99696.94;;;18.16;nan
62705;BME280;48767;50.754;8.772;2022-07-22T04:50:12;99692.66;;;18.28;nan
62705;BME280;48767;50.754;8.772;2022-07-22T04:52:39;99689.00;;;18.42;nan
62705;BME280;48767;50.754;8.772;2022-07-22T04:55:06;99693.84;;;18.40;nan
62705;BME280;48767;50.754;8.772;2022-07-22T04:57:33;99691.13;;;18.19;nan
62705;BME280;48767;50.754;8.772;2022-07-22T04:59:59;99689.00;;;18.42;nan
62705;BME280;48767;50.754;8.772;2022-07-22T05:02:26;99688.13;;;18.35;nan
62705;BME280;48767;50.754;8.772;2022-07-22T05:04:53;99699.78;;;18.50;nan
62705;BME280;48767;50.754;8.772;2022-07-22T05:07:20;99697.81;;;18.65;nan
62705;BME280;48767;50.754;8.772;2022-07-22T05:09:46;99693.75;;;18.89;nan
62705;BME280;48767;50.754;8.772;2022-07-22T05:12:13;99700.50;;;18.99;nan
62705;BME280;48767;50.754;8.772;2022-07-22T05:14:39;99701.19;;;19.08;nan
62705;BME280;48767;50.754;8.772;2022-07-22T05:17:09;99701.22;;;19.14;nan
62705;BME280;48767;50.754;8.772;2022-07-22T05:19:37;99699.63;;;18.92;nan
62705;BME280;48767;50.754;8.772;2022-07-22T05:22:05;99699.41;;;18.87;nan
62705;BME280;48767;50.754;8.772;2022-07-22T05:24:31;99701.16;;;19.01;nan
62705;BME280;48767;50.754;8.772;2022-07-22T05:27:04;99693.06;;;19.21;nan
62705;BME280;48767;50.754;8.772;2022-07-22T05:29:30;99694.31;;;19.18;nan
62705;BME280;48767;50.754;8.772;2022-07-22T05:31:57;99698.00;;;19.04;nan
62705;BME280;48767;50.754;8.772;2022-07-22T05:34:23;99698.44;;;19.08;nan
62705;BME280;48767;50.754;8.772;2022-07-22T05:36:50;99694.66;;;19.02;nan
62705;BME280;48767;50.754;8.772;2022-07-22T05:39:18;99699.25;;;19.02;nan
62705;BME280;48767;50.754;8.772;2022-07-22T05:41:44;99690.94;;;19.16;nan
62705;BME280;48767;50.754;8.772;2022-07-22T05:44:10;99697.03;;;19.18;nan
62705;BME280;48767;50.754;8.772;2022-07-22T05:46:37;99684.84;;;19.14;nan
62705;BME280;48767;50.754;8.772;2022-07-22T05:49:03;99687.69;;;19.40;nan
62705;BME280;48767;50.754;8.772;2022-07-22T05:51:30;99679.31;;;19.42;nan
62705;BME280;48767;50.754;8.772;2022-07-22T05:53:57;99687.31;;;19.43;nan
62705;BME280;48767;50.754;8.772;2022-07-22T05:56:24;99684.34;;;19.38;nan
62705;BME280;48767;50.754;8.772;2022-07-22T05:58:51;99680.84;;;19.57;nan
62705;BME280;48767;50.754;8.772;2022-07-22T06:01:17;99682.09;;;19.61;nan
62705;BME280;48767;50.754;8.772;2022-07-22T06:03:44;99678.56;;;19.80;nan
62705;BME280;48767;50.754;8.772;2022-07-22T06:06:10;99679.22;;;19.95;nan
62705;BME280;48767;50.754;8.772;2022-07-22T06:08:37;99676.09;;;20.24;nan
62705;BME280;48767;50.754;8.772;2022-07-22T06:11:03;99675.69;;;20.27;nan
62705;BME280;48767;50.754;8.772;2022-07-22T06:13:31;99671.50;;;20.38;nan
62705;BME280;48767;50.754;8.772;2022-07-22T06:15:58;99666.63;;;20.46;nan
62705;BME280;48767;50.754;8.772;2022-07-22T06:18:25;99671.25;;;20.52;nan
62705;BME280;48767;50.754;8.772;2022-07-22T06:20:52;99666.00;;;20.44;nan
62705;BME280;48767;50.754;8.772;2022-07-22T06:23:18;99665.56;;;20.34;nan
62705;BME280;48767;50.754;8.772;2022-07-22T06:25:45;99676.69;;;20.00;nan
62705;BME280;48767;50.754;8.772;2022-07-22T06:28:11;99676.09;;;20.11;nan
62705;BME280;48767;50.754;8.772;2022-07-22T06:30:39;99675.69;;;20.21;nan
62705;BME280;48767;50.754;8.772;2022-07-22T06:33:06;99682.84;;;20.41;nan
62705;BME280;48767;50.754;8.772;2022-07-22T06:35:33;99691.25;;;20.46;nan
62705;BME280;48767;50.754;8.772;2022-07-22T06:37:59;99693.78;;;20.15;nan
62705;BME280;48767;50.754;8.772;2022-07-22T06:40:26;99688.09;;;20.49;nan
62705;BME280;48767;50.754;8.772;2022-07-22T06:42:52;99702.22;;;20.46;nan
62705;BME280;48767;50.754;8.772;2022-07-22T06:45:19;99695.88;;;20.59;nan
62705;BME280;48767;50.754;8.772;2022-07-22T06:47:47;99693.53;;;20.75;nan
62705;BME280;48767;50.754;8.772;2022-07-22T06:50:13;99685.34;;;20.62;nan
62705;BME280;48767;50.754;8.772;2022-07-22T06:52:40;99696.28;;;20.49;nan
62705;BME280;48767;50.754;8.772;2022-07-22T06:55:08;99696.72;;;20.46;nan
62705;BME280;48767;50.754;8.772;2022-07-22T06:57:35;99701.34;;;20.52;nan
62705;BME280;48767;50.754;8.772;2022-07-22T07:00:04;99694.00;;;20.40;nan
62705;BME280;48767;50.754;8.772;2022-07-22T07:02:32;99694.41;;;20.37;nan
62705;BME280;48767;50.754;8.772;2022-07-22T07:05:00;99687.66;;;20.52;nan
62705;BME280;48767;50.754;8.772;2022-07-22T07:07:27;99685.72;;;20.85;nan
62705;BME280;48767;50.754;8.772;2022-07-22T07:09:54;99679.47;;;21.29;nan
62705;BME280;48767;50.754;8.772;2022-07-22T07:12:20;99683.41;;;20.95;nan
62705;BME280;48767;50.754;8.772;2022-07-22T07:14:47;99682.97;;;20.98;nan
62705;BME280;48767;50.754;8.772;2022-07-22T07:17:13;99674.41;;;21.32;nan
62705;BME280;48767;50.754;8.772;2022-07-22T07:19:40;99669.38;;;21.29;nan
62705;BME280;48767;50.754;8.772;2022-07-22T07:22:08;99661.97;;;21.36;nan
62705;BME280;48767;50.754;8.772;2022-07-22T07:24:35;99666.81;;;21.78;nan
62705;BME280;48767;50.754;8.772;2022-07-22T07:27:01;99658.09;;;22.19;nan
62705;BME280;48767;50.754;8.772;2022-07-22T07:29:27;99665.94;;;20.77;nan
62705;BME280;48767;50.754;8.772;2022-07-22T07:31:54;99650.22;;;21.23;nan
62705;BME280;48767;50.754;8.772;2022-07-22T07:34:20;99650.38;;;21.72;nan
62705;BME280;48767;50.754;8.772;2022-07-22T07:36:47;99645.94;;;22.58;nan
62705;BME280;48767;50.754;8.772;2022-07-22T07:39:15;99653.09;;;22.58;nan
62705;BME280;48767;50.754;8.772;2022-07-22T07:41:41;99663.50;;;22.01;nan
62705;BME280;48767;50.754;8.772;2022-07-22T07:44:08;99659.41;;;22.10;nan
62705;BME280;48767;50.754;8.772;2022-07-22T07:46:34;99650.28;;;21.91;nan
62705;BME280;48767;50.754;8.772;2022-07-22T07:49:01;99653.78;;;21.74;nan
62705;BME280;48767;50.754;8.772;2022-07-22T07:51:27;99654.34;;;21.38;nan
62705;BME280;48767;50.754;8.772;2022-07-22T07:53:54;99656.50;;;21.67;nan
62705;BME280;48767;50.754;8.772;2022-07-22T07:56:21;99639.66;;;22.50;nan
62705;BME280;48767;50.754;8.772;2022-07-22T07:58:48;99635.09;;;23.34;nan
62705;BME280;48767;50.754;8.772;2022-07-22T08:01:14;99635.56;;;24.32;nan
62705;BME280;48767;50.754;8.772;2022-07-22T08:03:41;99647.47;;;22.71;nan
62705;BME280;48767;50.754;8.772;2022-07-22T08:06:07;99635.28;;;23.80;nan
62705;BME280;48767;50.754;8.772;2022-07-22T08:08:34;99632.00;;;24.66;nan
62705;BME280;48767;50.754;8.772;2022-07-22T08:11:00;99637.78;;;24.00;nan
62705;BME280;48767;50.754;8.772;2022-07-22T08:13:28;99636.94;;;23.41;nan
62705;BME280;48767;50.754;8.772;2022-07-22T08:15:55;99617.88;;;25.13;nan
62705;BME280;48767;50.754;8.772;2022-07-22T08:18:22;99627.59;;;25.16;nan
62705;BME280;48767;50.754;8.772;2022-07-22T08:20:48;99638.91;;;24.91;nan
62705;BME280;48767;50.754;8.772;2022-07-22T08:23:15;99639.53;;;22.63;nan
62705;BME280;48767;50.754;8.772;2022-07-22T08:25:41;99635.63;;;24.02;nan
62705;BME280;48767;50.754;8.772;2022-07-22T08:28:08;99636.81;;;23.36;nan
62705;BME280;48767;50.754;8.772;2022-07-22T08:30:36;99640.47;;;22.75;nan
62705;BME280;48767;50.754;8.772;2022-07-22T08:33:03;99637.81;;;22.44;nan
62705;BME280;48767;50.754;8.772;2022-07-22T08:35:29;99634.06;;;22.99;nan
62705;BME280;48767;50.754;8.772;2022-07-22T08:37:56;99632.38;;;23.64;nan
62705;BME280;48767;50.754;8.772;2022-07-22T08:40:23;99622.47;;;23.74;nan
62705;BME280;48767;50.754;8.772;2022-07-22T08:42:50;99616.78;;;23.88;nan
62705;BME280;48767;50.754;8.772;2022-07-22T08:45:17;99616.69;;;24.70;nan
62705;BME280;48767;50.754;8.772;2022-07-22T08:47:46;99600.97;;;25.33;nan
62705;BME280;48767;50.754;8.772;2022-07-22T08:50:13;99600.72;;;25.62;nan
62705;BME280;48767;50.754;8.772;2022-07-22T08:52:40;99609.56;;;24.85;nan
62705;BME280;48767;50.754;8.772;2022-07-22T08:55:08;99593.97;;;26.14;nan
62705;BME280;48767;50.754;8.772;2022-07-22T08:57:35;99585.47;;;26.92;nan
62705;BME280;48767;50.754;8.772;2022-07-22T09:00:08;99588.34;;;27.40;nan
62705;BME280;48767;50.754;8.772;2022-07-22T09:02:36;99597.34;;;26.71;nan
62705;BME280;48767;50.754;8.772;2022-07-22T09:05:06;99589.81;;;26.83;nan
62705;BME280;48767;50.754;8.772;2022-07-22T09:07:35;99592.44;;;27.16;nan
62705;BME280;48767;50.754;8.772;2022-07-22T09:10:04;99602.91;;;25.77;nan
62705;BME280;48767;50.754;8.772;2022-07-22T09:12:31;99591.00;;;26.54;nan
62705;BME280;48767;50.754;8.772;2022-07-22T09:14:59;99594.94;;;25.92;nan
62705;BME280;48767;50.754;8.772;2022-07-22T09:17:27;99603.97;;;25.31;nan
62705;BME280;48767;50.754;8.772;2022-07-22T09:19:54;99604.63;;;25.50;nan
62705;BME280;48767;50.754;8.772;2022-07-22T09:22:35;99612.31;;;24.97;nan
62705;BME280;48767;50.754;8.772;2022-07-22T09:25:20;99600.31;;;25.03;nan
62705;BME280;48767;50.754;8.772;2022-07-22T09:27:49;99613.13;;;24.97;nan
62705;BME280;48767;50.754;8.772;2022-07-22T09:30:16;99595.22;;;25.62;nan
62705;BME280;48767;50.754;8.772;2022-07-22T09:32:43;99594.59;;;24.93;nan
62705;BME280;48767;50.754;8.772;2022-07-22T09:35:11;99601.22;;;25.20;nan
62705;BME280;48767;50.754;8.772;2022-07-22T09:37:48;99603.97;;;24.80;nan
62705;BME280;48767;50.754;8.772;2022-07-22T09:40:16;99599.44;;;25.25;nan
62705;BME280;48767;50.754;8.772;2022-07-22T09:42:44;99596.78;;;25.30;nan
62705;BME280;48767;50.754;8.772;2022-07-22T09:45:10;99600.31;;;26.31;nan
62705;BME280;48767;50.754;8.772;2022-07-22T09:47:40;99598.72;;;26.19;nan
62705;BME280;48767;50.754;8.772;2022-07-22T09:50:17;99596.03;;;25.63;nan
62705;BME280;48767;50.754;8.772;2022-07-22T09:52:47;99601.47;;;25.30;nan
62705;BME280;48767;50.754;8.772;2022-07-22T09:55:14;99586.91;;;26.40;nan
62705;BME280;48767;50.754;8.772;2022-07-22T09:57:42;99601.09;;;25.38;nan
62705;BME280;48767;50.754;8.772;2022-07-22T10:00:09;99585.53;;;25.20;nan
62705;BME280;48767;50.754;8.772;2022-07-22T10:02:40;99591.97;;;25.37;nan
62705;BME280;48767;50.754;8.772;2022-07-22T10:05:08;99591.84;;;25.21;nan
62705;BME280;48767;50.754;8.772;2022-07-22T10:07:37;99587.66;;;25.18;nan
62705;BME280;48767;50.754;8.772;2022-07-22T10:10:07;99579.34;;;25.86;nan
62705;BME280;48767;50.754;8.772;2022-07-22T10:12:35;99581.59;;;25.28;nan
62705;BME280;48767;50.754;8.772;2022-07-22T10:15:03;99576.81;;;25.68;nan
62705;BME280;48767;50.754;8.772;2022-07-22T10:17:30;99565.97;;;26.44;nan
62705;BME280;48767;50.754;8.772;2022-07-22T10:19:57;99559.94;;;27.49;nan
62705;BME280;48767;50.754;8.772;2022-07-22T10:22:53;99563.50;;;26.09;nan
62705;BME280;48767;50.754;8.772;2022-07-22T10:25:23;99564.25;;;25.04;nan
62705;BME280;48767;50.754;8.772;2022-07-22T10:27:52;99556.31;;;25.92;nan
62705;BME280;48767;50.754;8.772;2022-07-22T10:30:20;99553.56;;;25.08;nan
62705;BME280;48767;50.754;8.772;2022-07-22T10:33:05;99560.63;;;25.15;nan
62705;BME280;48767;50.754;8.772;2022-07-22T10:35:33;99544.88;;;25.55;nan
62705;BME280;48767;50.754;8.772;2022-07-22T10:38:03;99552.44;;;24.58;nan
62705;BME280;48767;50.754;8.772;2022-07-22T10:40:45;99544.53;;;26.51;nan
62705;BME280;48767;50.754;8.772;2022-07-22T10:43:13;99539.44;;;26.05;nan
62705;BME280;48767;50.754;8.772;2022-07-22T10:45:42;99544.41;;;25.75;nan
62705;BME280;48767;50.754;8.772;2022-07-22T10:48:12;99542.06;;;26.33;nan
62705;BME280;48767;50.754;8.772;2022-07-22T10:50:50;99550.81;;;25.08;nan
62705;BME280;48767;50.754;8.772;2022-07-22T10:53:22;99537.41;;;26.93;nan
62705;BME280;48767;50.754;8.772;2022-07-22T10:56:05;99529.44;;;27.71;nan
62705;BME280;48767;50.754;8.772;2022-07-22T10:58:53;99524.41;;;28.31;nan
62705;BME280;48767;50.754;8.772;2022-07-22T11:01:23;99532.72;;;28.31;nan
62705;BME280;48767;50.754;8.772;2022-07-22T11:03:50;99522.22;;;28.79;nan
62705;BME280;48767;50.754;8.772;2022-07-22T11:06:25;99525.31;;;28.05;nan
62705;BME280;48767;50.754;8.772;2022-07-22T11:08:53;99536.34;;;27.42;nan
62705;BME280;48767;50.754;8.772;2022-07-22T11:11:33;99529.69;;;26.73;nan
62705;BME280;48767;50.754;8.772;2022-07-22T11:14:00;99528.63;;;26.20;nan
62705;BME280;48767;50.754;8.772;2022-07-22T11:16:28;99517.44;;;27.60;nan
62705;BME280;48767;50.754;8.772;2022-07-22T11:18:56;99522.19;;;28.28;nan
62705;BME280;48767;50.754;8.772;2022-07-22T11:21:24;99517.25;;;28.76;nan
62705;BME280;48767;50.754;8.772;2022-07-22T11:23:53;99510.06;;;29.62;nan
62705;BME280;48767;50.754;8.772;2022-07-22T11:26:24;99501.75;;;29.82;nan
62705;BME280;48767;50.754;8.772;2022-07-22T11:28:53;99489.50;;;30.13;nan
62705;BME280;48767;50.754;8.772;2022-07-22T11:31:20;99493.13;;;29.83;nan
62705;BME280;48767;50.754;8.772;2022-07-22T11:33:47;99489.44;;;30.53;nan
62705;BME280;48767;50.754;8.772;2022-07-22T11:36:14;99484.94;;;30.77;nan
62705;BME280;48767;50.754;8.772;2022-07-22T11:38:42;99484.94;;;30.77;nan
62705;BME280;48767;50.754;8.772;2022-07-22T11:41:09;99482.00;;;29.88;nan
62705;BME280;48767;50.754;8.772;2022-07-22T11:43:40;99483.84;;;29.13;nan
62705;BME280;48767;50.754;8.772;2022-07-22T11:46:08;99471.66;;;29.29;nan
62705;BME280;48767;50.754;8.772;2022-07-22T11:48:35;99485.41;;;28.94;nan
62705;BME280;48767;50.754;8.772;2022-07-22T11:51:03;99479.56;;;28.34;nan
62705;BME280;48767;50.754;8.772;2022-07-22T11:53:30;99480.28;;;28.61;nan
62705;BME280;48767;50.754;8.772;2022-07-22T11:55:58;99480.56;;;28.18;nan
62705;BME280;48767;50.754;8.772;2022-07-22T11:58:38;99466.78;;;28.79;nan
62705;BME280;48767;50.754;8.772;2022-07-22T12:01:04;99455.63;;;29.76;nan
62705;BME280;48767;50.754;8.772;2022-07-22T12:03:35;99450.91;;;30.21;nan
62705;BME280;48767;50.754;8.772;2022-07-22T12:06:03;99453.22;;;30.78;nan
62705;BME280;48767;50.754;8.772;2022-07-22T12:08:30;99451.50;;;30.92;nan
62705;BME280;48767;50.754;8.772;2022-07-22T12:10:58;99453.75;;;31.72;nan
62705;BME280;48767;50.754;8.772;2022-07-22T12:13:29;99445.13;;;31.73;nan
62705;BME280;48767;50.754;8.772;2022-07-22T12:15:56;99449.28;;;30.89;nan
62705;BME280;48767;50.754;8.772;2022-07-22T12:18:24;99443.84;;;30.44;nan
62705;BME280;48767;50.754;8.772;2022-07-22T12:20:54;99442.59;;;30.11;nan
62705;BME280;48767;50.754;8.772;2022-07-22T12:23:24;99447.66;;;31.70;nan
62705;BME280;48767;50.754;8.772;2022-07-22T12:25:54;99449.47;;;29.34;nan
62705;BME280;48767;50.754;8.772;2022-07-22T12:28:21;99445.59;;;30.10;nan
62705;BME280;48767;50.754;8.772;2022-07-22T12:30:49;99440.19;;;30.63;nan
62705;BME280;48767;50.754;8.772;2022-07-22T12:33:16;99435.53;;;30.44;nan
62705;BME280;48767;50.754;8.772;2022-07-22T12:35:44;99452.66;;;27.88;nan
62705;BME280;48767;50.754;8.772;2022-07-22T12:38:25;99449.63;;;28.36;nan
62705;BME280;48767;50.754;8.772;2022-07-22T12:40:51;99440.72;;;28.80;nan
62705;BME280;48767;50.754;8.772;2022-07-22T12:43:24;99430.50;;;30.56;nan
62705;BME280;48767;50.754;8.772;2022-07-22T12:45:51;99425.34;;;29.84;nan
62705;BME280;48767;50.754;8.772;2022-07-22T12:48:17;99418.53;;;31.14;nan
62705;BME280;48767;50.754;8.772;2022-07-22T12:50:54;99425.03;;;30.21;nan
62705;BME280;48767;50.754;8.772;2022-07-22T12:53:21;99418.06;;;30.33;nan
62705;BME280;48767;50.754;8.772;2022-07-22T12:55:51;99422.28;;;29.36;nan
62705;BME280;48767;50.754;8.772;2022-07-22T12:58:18;99416.75;;;29.46;nan
62705;BME280;48767;50.754;8.772;2022-07-22T13:00:46;99413.97;;;29.61;nan
62705;BME280;48767;50.754;8.772;2022-07-22T13:03:12;99411.16;;;30.21;nan
62705;BME280;48767;50.754;8.772;2022-07-22T13:05:39;99401.22;;;31.27;nan
62705;BME280;48767;50.754;8.772;2022-07-22T13:08:06;99405.31;;;30.27;nan
62705;BME280;48767;50.754;8.772;2022-07-22T13:10:33;99393.75;;;30.59;nan
62705;BME280;48767;50.754;8.772;2022-07-22T13:13:01;99391.44;;;30.86;nan
62705;BME280;48767;50.754;8.772;2022-07-22T13:15:27;99391.66;;;30.36;nan
62705;BME280;48767;50.754;8.772;2022-07-22T13:17:54;99393.97;;;29.84;nan
62705;BME280;48767;50.754;8.772;2022-07-22T13:20:20;99391.56;;;30.56;nan
62705;BME280;48767;50.754;8.772;2022-07-22T13:22:47;99384.28;;;31.13;nan
62705;BME280;48767;50.754;8.772;2022-07-22T13:25:14;99391.41;;;30.91;nan